sensor_id;sensor_type;location;lat;lon;timestamp;pressure;altitude;pressure_sealevel;temperature;humidity
23574;BME280;11965;53.640;10.050;2024-01-30T00:02:17;102610.63;;;1.78;100.00
23574;BME280;11965;53.640;10.050;2024-01-30T00:04:44;102623.72;;;1.73;100.00
23574;BME280;11965;53.640;10.050;2024-01-30T00:07:11;102620.97;;;1.73;100.00
23574;BME280;11965;53.640;10.050;2024-01-30T00:09:38;102628.31;;;1.72;100.00
23574;BME280;11965;53.640;10.050;2024-01-30T00:12:07;102621.06;;;1.71;100.00
23574;BME280;11965;53.640;10.050;2024-01-30T00:14:34;102623.03;;;1.69;100.00
23574;BME280;11965;53.640;10.050;2024-01-30T00:17:01;102621.44;;;1.65;100.00
23574;BME280;11965;53.640;10.050;2024-01-30T00:19:28;102610.50;;;1.65;100.00
23574;BME280;11965;53.640;10.050;2024-01-30T00:21:55;102614.97;;;1.66;100.00
23574;BME280;11965;53.640;10.050;2024-01-30T00:24:22;102612.38;;;1.65;100.00
23574;BME280;11965;53.640;10.050;2024-01-30T00:26:49;102594.19;;;1.64;100.00
23574;BME280;11965;53.640;10.050;2024-01-30T00:29:17;102602.03;;;1.70;100.00
23574;BME280;11965;53.640;10.050;2024-01-30T00:31:45;102586.50;;;1.70;100.00
23574;BME280;11965;53.640;10.050;2024-01-30T00:34:11;102594.59;;;1.72;100.00
23574;BME280;11965;53.640;10.050;2024-01-30T00:36:38;102599.38;;;1.68;100.00
23574;BME280;11965;53.640;10.050;2024-01-30T00:39:05;102607.38;;;1.71;100.00
23574;BME280;11965;53.640;10.050;2024-01-30T00:41:34;102595.69;;;1.69;100.00
23574;BME280;11965;53.640;10.050;2024-01-30T00:44:01;102599.38;;;1.68;100.00
23574;BME280;11965;53.640;10.050;2024-01-30T00:46:29;102593.13;;;1.66;100.00
23574;BME280;11965;53.640;10.050;2024-01-30T00:48:56;102594.09;;;1.65;100.00
23574;BME280;11965;53.640;10.050;2024-01-30T00:51:23;102594.97;;;1.66;100.00
23574;BME280;11965;53.640;10.050;2024-01-30T00:53:50;102593.22;;;1.65;100.00
23574;BME280;11965;53.640;10.050;2024-01-30T00:56:18;102591.38;;;1.65;100.00
23574;BME280;11965;53.640;10.050;2024-01-30T00:58:46;102595.97;;;1.65;100.00
23574;BME280;11965;53.640;10.050;2024-01-30T01:01:12;102586.69;;;1.67;100.00
23574;BME280;11965;53.640;10.050;2024-01-30T01:03:41;102590.31;;;1.68;100.00
23574;BME280;11965;53.640;10.050;2024-01-30T01:06:09;102590.31;;;1.68;100.00
23574;BME280;11965;53.640;10.050;2024-01-30T01:08:36;102590.22;;;1.69;100.00
23574;BME280;11965;53.640;10.050;2024-01-30T01:11:03;102595.69;;;1.69;100.00
23574;BME280;11965;53.640;10.050;2024-01-30T01:13:30;102596.44;;;1.71;100.00
23574;BME280;11965;53.640;10.050;2024-01-30T01:15:57;102594.50;;;1.73;100.00
23574;BME280;11965;53.640;10.050;2024-01-30T01:18:24;102593.72;;;1.71;100.00
23574;BME280;11965;53.640;10.050;2024-01-30T01:20:52;102597.25;;;1.73;100.00
23574;BME280;11965;53.640;10.050;2024-01-30T01:23:19;102598.03;;;1.75;100.00
23574;BME280;11965;53.640;10.050;2024-01-30T01:25:46;102603.69;;;1.72;100.00
23574;BME280;11965;53.640;10.050;2024-01-30T01:28:13;102598.91;;;1.76;100.00
23574;BME280;11965;53.640;10.050;2024-01-30T01:30:40;102604.31;;;1.77;100.00
23574;BME280;11965;53.640;10.050;2024-01-30T01:33:07;102596.66;;;1.83;100.00
23574;BME280;11965;53.640;10.050;2024-01-30T01:35:34;102590.44;;;1.81;100.00
23574;BME280;11965;53.640;10.050;2024-01-30T01:38:03;102593.06;;;1.82;100.00
23574;BME280;11965;53.640;10.050;2024-01-30T01:40:30;102587.69;;;1.81;100.00
23574;BME280;11965;53.640;10.050;2024-01-30T01:42:57;102582.44;;;1.77;100.00
23574;BME280;11965;53.640;10.050;2024-01-30T01:45:24;102583.00;;;1.83;100.00
23574;BME280;11965;53.640;10.050;2024-01-30T01:47:51;102580.25;;;1.83;100.00
23574;BME280;11965;53.640;10.050;2024-01-30T01:50:20;102588.09;;;1.89;100.00
23574;BME280;11965;53.640;10.050;2024-01-30T01:52:48;102566.78;;;1.80;100.00
23574;BME280;11965;53.640;10.050;2024-01-30T01:55:21;102582.44;;;1.92;100.00
23574;BME280;11965;53.640;10.050;2024-01-30T01:57:50;102577.97;;;1.91;100.00
23574;BME280;11965;53.640;10.050;2024-01-30T02:00:18;102580.50;;;1.94;100.00
23574;BME280;11965;53.640;10.050;2024-01-30T02:02:46;102581.09;;;1.99;100.00
23574;BME280;11965;53.640;10.050;2024-01-30T02:05:15;102574.56;;;2.02;100.00
23574;BME280;11965;53.640;10.050;2024-01-30T02:07:43;102562.03;;;1.97;100.00
23574;BME280;11965;53.640;10.050;2024-01-30T02:10:10;102567.81;;;2.07;100.00
23574;BME280;11965;53.640;10.050;2024-01-30T02:12:40;102554.72;;;2.12;100.00
23574;BME280;11965;53.640;10.050;2024-01-30T02:15:07;102564.56;;;2.15;100.00
23574;BME280;11965;53.640;10.050;2024-01-30T02:17:34;102551.66;;;2.17;100.00
23574;BME280;11965;53.640;10.050;2024-01-30T02:20:01;102550.72;;;2.18;100.00
23574;BME280;11965;53.640;10.050;2024-01-30T02:22:33;102550.00;;;2.14;100.00
23574;BME280;11965;53.640;10.050;2024-01-30T02:25:00;102543.56;;;2.15;100.00
23574;BME280;11965;53.640;10.050;2024-01-30T02:27:28;102532.53;;;2.17;100.00
23574;BME280;11965;53.640;10.050;2024-01-30T02:29:54;102525.88;;;2.21;100.00
23574;BME280;11965;53.640;10.050;2024-01-30T02:32:21;102534.97;;;2.21;100.00
23574;BME280;11965;53.640;10.050;2024-01-30T02:34:48;102535.84;;;2.22;100.00
23574;BME280;11965;53.640;10.050;2024-01-30T02:37:16;102530.66;;;2.17;100.00
23574;BME280;11965;53.640;10.050;2024-01-30T02:39:45;102536.50;;;2.26;100.00
23574;BME280;11965;53.640;10.050;2024-01-30T02:42:11;102523.94;;;2.23;100.00
23574;BME280;11965;53.640;10.050;2024-01-30T02:44:40;102533.22;;;2.20;100.00
23574;BME280;11965;53.640;10.050;2024-01-30T02:47:07;102522.38;;;2.19;100.00
23574;BME280;11965;53.640;10.050;2024-01-30T02:49:34;102521.50;;;2.18;100.00
23574;BME280;11965;53.640;10.050;2024-01-30T02:52:01;102528.03;;;2.16;100.00
23574;BME280;11965;53.640;10.050;2024-01-30T02:54:27;102520.41;;;2.07;100.00
23574;BME280;11965;53.640;10.050;2024-01-30T02:56:57;102532.13;;;2.09;100.00
23574;BME280;11965;53.640;10.050;2024-01-30T02:59:24;102523.34;;;2.04;100.00
23574;BME280;11965;53.640;10.050;2024-01-30T03:01:51;102525.41;;;2.00;100.00
23574;BME280;11965;53.640;10.050;2024-01-30T03:04:18;102524.81;;;1.95;100.00
23574;BME280;11965;53.640;10.050;2024-01-30T03:06:46;102526.09;;;1.89;100.00
23574;BME280;11965;53.640;10.050;2024-01-30T03:09:15;102516.50;;;1.82;100.00
23574;BME280;11965;53.640;10.050;2024-01-30T03:11:42;102522.69;;;1.86;100.00
23574;BME280;11965;53.640;10.050;2024-01-30T03:14:10;102508.41;;;1.81;100.00
23574;BME280;11965;53.640;10.050;2024-01-30T03:16:37;102513.16;;;1.77;100.00
23574;BME280;11965;53.640;10.050;2024-01-30T03:19:06;102507.91;;;1.74;100.00
23574;BME280;11965;53.640;10.050;2024-01-30T03:21:35;102518.94;;;1.72;100.00
23574;BME280;11965;53.640;10.050;2024-01-30T03:24:02;102510.16;;;1.67;100.00
23574;BME280;11965;53.640;10.050;2024-01-30T03:26:29;102508.78;;;1.60;100.00
23574;BME280;11965;53.640;10.050;2024-01-30T03:28:56;102513.56;;;1.57;100.00
23574;BME280;11965;53.640;10.050;2024-01-30T03:31:25;102500.09;;;1.53;100.00
23574;BME280;11965;53.640;10.050;2024-01-30T03:33:50;102501.06;;;1.52;100.00
23574;BME280;11965;53.640;10.050;2024-01-30T03:36:17;102500.38;;;1.49;100.00
23574;BME280;11965;53.640;10.050;2024-01-30T03:38:44;102507.88;;;1.45;100.00
23574;BME280;11965;53.640;10.050;2024-01-30T03:41:11;102503.66;;;1.40;100.00
23574;BME280;11965;53.640;10.050;2024-01-30T03:43:38;102501.91;;;1.39;100.00
23574;BME280;11965;53.640;10.050;2024-01-30T03:46:06;102501.13;;;1.37;100.00
23574;BME280;11965;53.640;10.050;2024-01-30T03:48:34;102492.25;;;1.33;100.00
23574;BME280;11965;53.640;10.050;2024-01-30T03:51:01;102493.22;;;1.32;100.00
23574;BME280;11965;53.640;10.050;2024-01-30T03:53:28;102488.63;;;1.32;100.00
23574;BME280;11965;53.640;10.050;2024-01-30T03:55:55;102488.34;;;1.37;100.00
23574;BME280;11965;53.640;10.050;2024-01-30T03:58:22;102484.72;;;1.37;100.00
23574;BME280;11965;53.640;10.050;2024-01-30T04:00:49;102481.91;;;1.38;100.00
23574;BME280;11965;53.640;10.050;2024-01-30T04:03:16;102486.31;;;1.41;100.00
23574;BME280;11965;53.640;10.050;2024-01-30T04:05:45;102482.91;;;1.37;100.00
23574;BME280;11965;53.640;10.050;2024-01-30T04:08:11;102491.78;;;1.41;100.00
23574;BME280;11965;53.640;10.050;2024-01-30T04:10:38;102480.06;;;1.39;100.00
23574;BME280;11965;53.640;10.050;2024-01-30T04:13:05;102483.56;;;1.41;100.00
23574;BME280;11965;53.640;10.050;2024-01-30T04:15:32;102483.75;;;1.38;100.00
23574;BME280;11965;53.640;10.050;2024-01-30T04:18:00;102491.09;;;1.37;100.00
23574;BME280;11965;53.640;10.050;2024-01-30T04:20:27;102489.44;;;1.35;100.00
23574;BME280;11965;53.640;10.050;2024-01-30T04:22:56;102488.72;;;1.31;100.00
23574;BME280;11965;53.640;10.050;2024-01-30T04:25:23;102492.50;;;1.28;100.00
23574;BME280;11965;53.640;10.050;2024-01-30T04:27:50;102489.88;;;1.27;100.00
23574;BME280;11965;53.640;10.050;2024-01-30T04:30:17;102490.66;;;1.29;100.00
23574;BME280;11965;53.640;10.050;2024-01-30T04:32:44;102483.91;;;1.20;100.00
23574;BME280;11965;53.640;10.050;2024-01-30T04:35:13;102485.69;;;1.21;100.00
23574;BME280;11965;53.640;10.050;2024-01-30T04:37:40;102488.50;;;1.20;100.00
23574;BME280;11965;53.640;10.050;2024-01-30T04:40:09;102487.63;;;1.19;100.00
23574;BME280;11965;53.640;10.050;2024-01-30T04:42:36;102497.75;;;1.17;100.00
23574;BME280;11965;53.640;10.050;2024-01-30T04:45:03;102494.34;;;1.14;100.00
23574;BME280;11965;53.640;10.050;2024-01-30T04:47:30;102498.31;;;1.08;100.00
23574;BME280;11965;53.640;10.050;2024-01-30T04:49:57;102497.53;;;1.06;100.00
23574;BME280;11965;53.640;10.050;2024-01-30T04:52:24;102488.69;;;1.17;100.00
23574;BME280;11965;53.640;10.050;2024-01-30T04:54:51;102500.00;;;1.10;100.00
23574;BME280;11965;53.640;10.050;2024-01-30T04:57:19;102496.69;;;1.20;100.00
23574;BME280;11965;53.640;10.050;2024-01-30T04:59:46;102491.50;;;1.15;100.00
23574;BME280;11965;53.640;10.050;2024-01-30T05:02:13;102489.38;;;1.20;100.00
23574;BME280;11965;53.640;10.050;2024-01-30T05:04:41;102484.88;;;1.19;100.00
23574;BME280;11965;53.640;10.050;2024-01-30T05:07:08;102485.69;;;1.21;100.00
23574;BME280;11965;53.640;10.050;2024-01-30T05:09:35;102487.50;;;1.21;100.00
23574;BME280;11965;53.640;10.050;2024-01-30T05:12:02;102481.28;;;1.19;100.00
23574;BME280;11965;53.640;10.050;2024-01-30T05:14:31;102486.28;;;1.26;100.00
23574;BME280;11965;53.640;10.050;2024-01-30T05:16:58;102481.59;;;1.28;100.00
23574;BME280;11965;53.640;10.050;2024-01-30T05:19:24;102488.44;;;1.36;100.00
23574;BME280;11965;53.640;10.050;2024-01-30T05:21:52;102481.44;;;1.46;100.00
23574;BME280;11965;53.640;10.050;2024-01-30T05:24:19;102485.44;;;1.54;100.00
23574;BME280;11965;53.640;10.050;2024-01-30T05:26:46;102484.97;;;1.62;100.00
23574;BME280;11965;53.640;10.050;2024-01-30T05:29:13;102491.81;;;1.69;100.00
23574;BME280;11965;53.640;10.050;2024-01-30T05:31:42;102481.28;;;1.77;100.00
23574;BME280;11965;53.640;10.050;2024-01-30T05:34:09;102476.94;;;1.88;100.00
23574;BME280;11965;53.640;10.050;2024-01-30T05:36:36;102473.25;;;1.89;100.00
23574;BME280;11965;53.640;10.050;2024-01-30T05:39:03;102486.25;;;1.99;100.00
23574;BME280;11965;53.640;10.050;2024-01-30T05:41:30;102477.53;;;2.07;100.00
23574;BME280;11965;53.640;10.050;2024-01-30T05:43:58;102469.50;;;2.04;100.00
23574;BME280;11965;53.640;10.050;2024-01-30T05:46:25;102471.97;;;2.09;100.00
23574;BME280;11965;53.640;10.050;2024-01-30T05:48:53;102471.97;;;2.09;100.00
23574;BME280;11965;53.640;10.050;2024-01-30T05:51:20;102459.34;;;2.06;100.00
23574;BME280;11965;53.640;10.050;2024-01-30T05:53:47;102463.88;;;2.07;100.00
23574;BME280;11965;53.640;10.050;2024-01-30T05:56:14;102465.63;;;2.08;100.00
23574;BME280;11965;53.640;10.050;2024-01-30T05:58:41;102455.16;;;2.01;100.00
23574;BME280;11965;53.640;10.050;2024-01-30T06:01:09;102457.03;;;2.00;100.00
23574;BME280;11965;53.640;10.050;2024-01-30T06:03:36;102454.28;;;2.00;100.00
23574;BME280;11965;53.640;10.050;2024-01-30T06:06:06;102453.31;;;2.01;100.00
23574;BME280;11965;53.640;10.050;2024-01-30T06:08:33;102462.09;;;2.06;100.00
23574;BME280;11965;53.640;10.050;2024-01-30T06:11:00;102459.72;;;2.14;100.00
23574;BME280;11965;53.640;10.050;2024-01-30T06:13:27;102459.94;;;2.11;100.00
23574;BME280;11965;53.640;10.050;2024-01-30T06:15:57;102456.25;;;2.12;100.00
23574;BME280;11965;53.640;10.050;2024-01-30T06:18:24;102450.94;;;2.09;100.00
23574;BME280;11965;53.640;10.050;2024-01-30T06:20:52;102443.53;;;2.11;100.00
23574;BME280;11965;53.640;10.050;2024-01-30T06:23:21;102429.56;;;2.16;100.00
23574;BME280;11965;53.640;10.050;2024-01-30T06:25:47;102430.81;;;2.25;100.00
23574;BME280;11965;53.640;10.050;2024-01-30T06:28:14;102438.59;;;2.31;100.00
23574;BME280;11965;53.640;10.050;2024-01-30T06:30:42;102434.78;;;2.33;100.00
23574;BME280;11965;53.640;10.050;2024-01-30T06:33:11;102432.41;;;2.41;100.00
23574;BME280;11965;53.640;10.050;2024-01-30T06:35:39;102435.41;;;2.51;100.00
23574;BME280;11965;53.640;10.050;2024-01-30T06:38:06;102430.28;;;2.59;100.00
23574;BME280;11965;53.640;10.050;2024-01-30T06:40:34;102427.81;;;2.69;100.00
23574;BME280;11965;53.640;10.050;2024-01-30T06:43:01;102419.25;;;2.74;100.00
23574;BME280;11965;53.640;10.050;2024-01-30T06:45:28;102429.38;;;2.86;100.00
23574;BME280;11965;53.640;10.050;2024-01-30T06:47:55;102427.31;;;2.90;100.00
23574;BME280;11965;53.640;10.050;2024-01-30T06:50:22;102420.88;;;2.91;100.00
23574;BME280;11965;53.640;10.050;2024-01-30T06:52:48;102427.22;;;2.91;100.00
23574;BME280;11965;53.640;10.050;2024-01-30T06:55:16;102427.22;;;2.91;100.00
23574;BME280;11965;53.640;10.050;2024-01-30T06:57:45;102424.25;;;2.94;100.00
23574;BME280;11965;53.640;10.050;2024-01-30T07:00:12;102430.50;;;2.96;100.00
23574;BME280;11965;53.640;10.050;2024-01-30T07:02:41;102432.47;;;2.94;100.00
23574;BME280;11965;53.640;10.050;2024-01-30T07:05:08;102431.47;;;2.95;100.00
23574;BME280;11965;53.640;10.050;2024-01-30T07:07:35;102432.47;;;2.94;100.00
23574;BME280;11965;53.640;10.050;2024-01-30T07:10:01;102428.09;;;2.92;100.00
23574;BME280;11965;53.640;10.050;2024-01-30T07:12:30;102425.78;;;2.85;100.00
23574;BME280;11965;53.640;10.050;2024-01-30T07:14:59;102416.13;;;2.80;100.00
23574;BME280;11965;53.640;10.050;2024-01-30T07:17:26;102421.03;;;2.75;100.00
23574;BME280;11965;53.640;10.050;2024-01-30T07:19:53;102427.69;;;2.71;100.00
23574;BME280;11965;53.640;10.050;2024-01-30T07:22:20;102432.50;;;2.67;100.00
23574;BME280;11965;53.640;10.050;2024-01-30T07:24:47;102423.22;;;2.70;100.00
23574;BME280;11965;53.640;10.050;2024-01-30T07:27:14;102422.22;;;2.71;100.00
23574;BME280;11965;53.640;10.050;2024-01-30T07:29:43;102418.53;;;2.72;100.00
23574;BME280;11965;53.640;10.050;2024-01-30T07:32:11;102416.44;;;2.75;100.00
23574;BME280;11965;53.640;10.050;2024-01-30T07:34:38;102416.69;;;2.85;100.00
23574;BME280;11965;53.640;10.050;2024-01-30T07:37:05;102414.03;;;2.83;100.00
23574;BME280;11965;53.640;10.050;2024-01-30T07:39:34;102424.78;;;2.86;100.00
23574;BME280;11965;53.640;10.050;2024-01-30T07:42:01;102422.03;;;2.86;100.00
23574;BME280;11965;53.640;10.050;2024-01-30T07:44:28;102430.50;;;2.96;100.00
23574;BME280;11965;53.640;10.050;2024-01-30T07:46:55;102427.13;;;3.05;100.00
23574;BME280;11965;53.640;10.050;2024-01-30T07:49:24;102424.16;;;3.08;100.00
23574;BME280;11965;53.640;10.050;2024-01-30T07:51:51;102429.78;;;3.20;100.00
23574;BME280;11965;53.640;10.050;2024-01-30T07:54:18;102429.22;;;3.27;100.00
23574;BME280;11965;53.640;10.050;2024-01-30T07:56:45;102429.56;;;3.36;100.00
23574;BME280;11965;53.640;10.050;2024-01-30T07:59:12;102430.78;;;3.44;100.00
23574;BME280;11965;53.640;10.050;2024-01-30T08:01:39;102420.47;;;3.48;100.00
23574;BME280;11965;53.640;10.050;2024-01-30T08:04:06;102427.16;;;3.57;100.00
23574;BME280;11965;53.640;10.050;2024-01-30T08:06:34;102423.00;;;3.64;100.00
23574;BME280;11965;53.640;10.050;2024-01-30T08:09:02;102423.41;;;3.70;100.00
23574;BME280;11965;53.640;10.050;2024-01-30T08:11:29;102395.44;;;3.65;100.00
23574;BME280;11965;53.640;10.050;2024-01-30T08:13:57;102423.41;;;3.83;100.00
23574;BME280;11965;53.640;10.050;2024-01-30T08:16:24;102412.75;;;3.91;100.00
23574;BME280;11965;53.640;10.050;2024-01-30T08:18:51;102414.38;;;3.94;100.00
23574;BME280;11965;53.640;10.050;2024-01-30T08:21:19;102410.84;;;4.05;100.00
23574;BME280;11965;53.640;10.050;2024-01-30T08:23:47;102413.91;;;4.13;100.00
23574;BME280;11965;53.640;10.050;2024-01-30T08:26:14;102413.00;;;4.25;100.00
23574;BME280;11965;53.640;10.050;2024-01-30T08:28:41;102409.94;;;4.17;100.00
23574;BME280;11965;53.640;10.050;2024-01-30T08:31:10;102412.84;;;4.27;100.00
23574;BME280;11965;53.640;10.050;2024-01-30T08:33:37;102408.91;;;4.31;100.00
23574;BME280;11965;53.640;10.050;2024-01-30T08:36:04;102412.34;;;4.46;100.00
23574;BME280;11965;53.640;10.050;2024-01-30T08:38:31;102409.03;;;4.53;100.00
23574;BME280;11965;53.640;10.050;2024-01-30T08:40:59;102399.56;;;4.57;100.00
23574;BME280;11965;53.640;10.050;2024-01-30T08:43:26;102410.84;;;4.65;100.00
23574;BME280;11965;53.640;10.050;2024-01-30T08:45:53;102405.38;;;4.77;100.00
23574;BME280;11965;53.640;10.050;2024-01-30T08:48:21;102393.38;;;4.78;100.00
23574;BME280;11965;53.640;10.050;2024-01-30T08:50:48;102396.78;;;4.81;100.00
23574;BME280;11965;53.640;10.050;2024-01-30T08:53:15;102389.81;;;4.88;100.00
23574;BME280;11965;53.640;10.050;2024-01-30T08:55:42;102380.34;;;4.93;100.00
23574;BME280;11965;53.640;10.050;2024-01-30T08:58:13;102380.59;;;4.90;100.00
23574;BME280;11965;53.640;10.050;2024-01-30T09:00:41;102380.97;;;4.96;100.00
23574;BME280;11965;53.640;10.050;2024-01-30T09:03:07;102364.38;;;4.98;100.00
23574;BME280;11965;53.640;10.050;2024-01-30T09:05:35;102360.38;;;5.02;100.00
23574;BME280;11965;53.640;10.050;2024-01-30T09:08:02;102354.53;;;5.06;100.00
23574;BME280;11965;53.640;10.050;2024-01-30T09:10:29;102351.69;;;5.19;100.00
23574;BME280;11965;53.640;10.050;2024-01-30T09:12:56;102356.81;;;5.24;100.00
23574;BME280;11965;53.640;10.050;2024-01-30T09:15:24;102357.81;;;5.34;100.00
23574;BME280;11965;53.640;10.050;2024-01-30T09:17:51;102360.53;;;5.34;100.00
23574;BME280;11965;53.640;10.050;2024-01-30T09:20:18;102362.44;;;5.45;100.00
23574;BME280;11965;53.640;10.050;2024-01-30T09:22:45;102367.94;;;5.56;100.00
23574;BME280;11965;53.640;10.050;2024-01-30T09:25:13;102366.69;;;5.60;100.00
23574;BME280;11965;53.640;10.050;2024-01-30T09:27:39;102377.94;;;5.68;100.00
23574;BME280;11965;53.640;10.050;2024-01-30T09:30:07;102381.81;;;5.77;100.00
23574;BME280;11965;53.640;10.050;2024-01-30T09:32:36;102386.72;;;5.96;100.00
23574;BME280;11965;53.640;10.050;2024-01-30T09:35:03;102388.84;;;6.04;100.00
23574;BME280;11965;53.640;10.050;2024-01-30T09:37:31;102388.94;;;6.25;100.00
23574;BME280;11965;53.640;10.050;2024-01-30T09:39:58;102390.31;;;6.19;100.00
23574;BME280;11965;53.640;10.050;2024-01-30T09:42:29;102391.78;;;6.23;100.00
23574;BME280;11965;53.640;10.050;2024-01-30T09:44:59;102389.44;;;6.18;100.00
23574;BME280;11965;53.640;10.050;2024-01-30T09:47:26;102394.94;;;6.30;100.00
23574;BME280;11965;53.640;10.050;2024-01-30T09:49:56;102385.91;;;6.28;100.00
23574;BME280;11965;53.640;10.050;2024-01-30T09:52:24;102390.72;;;6.47;100.00
23574;BME280;11965;53.640;10.050;2024-01-30T09:54:53;102380.75;;;6.46;100.00
23574;BME280;11965;53.640;10.050;2024-01-30T09:57:20;102376.59;;;6.51;100.00
23574;BME280;11965;53.640;10.050;2024-01-30T09:59:47;102368.41;;;6.61;100.00
23574;BME280;11965;53.640;10.050;2024-01-30T10:02:18;102372.66;;;6.65;100.00
23574;BME280;11965;53.640;10.050;2024-01-30T10:04:48;102374.16;;;6.58;100.00
23574;BME280;11965;53.640;10.050;2024-01-30T10:07:16;102361.53;;;6.55;100.00
23574;BME280;11965;53.640;10.050;2024-01-30T10:09:43;102368.84;;;6.77;100.00
23574;BME280;11965;53.640;10.050;2024-01-30T10:12:11;102364.69;;;6.83;100.00
23574;BME280;11965;53.640;10.050;2024-01-30T10:14:38;102356.81;;;6.99;100.00
23574;BME280;11965;53.640;10.050;2024-01-30T10:17:07;102354.19;;;6.98;100.00
23574;BME280;11965;53.640;10.050;2024-01-30T10:19:35;102358.00;;;7.06;100.00
23574;BME280;11965;53.640;10.050;2024-01-30T10:22:02;102354.66;;;7.24;100.00
23574;BME280;11965;53.640;10.050;2024-01-30T10:24:31;102366.75;;;7.33;100.00
23574;BME280;11965;53.640;10.050;2024-01-30T10:26:58;102360.88;;;7.47;100.00
23574;BME280;11965;53.640;10.050;2024-01-30T10:29:26;102366.44;;;7.57;100.00
23574;BME280;11965;53.640;10.050;2024-01-30T10:31:59;102363.09;;;7.53;100.00
23574;BME280;11965;53.640;10.050;2024-01-30T10:34:26;102358.34;;;7.34;100.00
23574;BME280;11965;53.640;10.050;2024-01-30T10:37:00;102349.78;;;7.37;100.00
23574;BME280;11965;53.640;10.050;2024-01-30T10:39:38;102349.69;;;7.48;100.00
23574;BME280;11965;53.640;10.050;2024-01-30T10:42:05;102352.63;;;7.57;100.00
23574;BME280;11965;53.640;10.050;2024-01-30T10:44:41;102337.91;;;7.77;100.00
23574;BME280;11965;53.640;10.050;2024-01-30T10:47:12;102354.47;;;7.77;100.00
23574;BME280;11965;53.640;10.050;2024-01-30T10:49:41;102338.03;;;7.75;100.00
23574;BME280;11965;53.640;10.050;2024-01-30T10:52:09;102342.06;;;8.02;100.00
23574;BME280;11965;53.640;10.050;2024-01-30T10:54:40;102347.28;;;7.95;100.00
23574;BME280;11965;53.640;10.050;2024-01-30T10:57:07;102339.63;;;8.09;100.00
23574;BME280;11965;53.640;10.050;2024-01-30T10:59:36;102347.44;;;8.04;100.00
23574;BME280;11965;53.640;10.050;2024-01-30T11:02:05;102338.88;;;8.07;100.00
23574;BME280;11965;53.640;10.050;2024-01-30T11:04:36;102346.59;;;8.13;100.00
23574;BME280;11965;53.640;10.050;2024-01-30T11:07:14;102348.91;;;8.08;100.00
23574;BME280;11965;53.640;10.050;2024-01-30T11:09:48;102343.09;;;8.11;100.00
23574;BME280;11965;53.640;10.050;2024-01-30T11:12:15;102330.00;;;8.13;100.00
23574;BME280;11965;53.640;10.050;2024-01-30T11:14:42;102335.28;;;8.35;100.00
23574;BME280;11965;53.640;10.050;2024-01-30T11:17:10;102338.31;;;8.32;100.00
23574;BME280;11965;53.640;10.050;2024-01-30T11:19:38;102338.94;;;8.36;100.00
23574;BME280;11965;53.640;10.050;2024-01-30T11:22:06;102337.03;;;8.36;100.00
23574;BME280;11965;53.640;10.050;2024-01-30T11:24:39;102330.66;;;8.46;100.00
23574;BME280;11965;53.640;10.050;2024-01-30T11:27:09;102323.25;;;8.56;100.00
23574;BME280;11965;53.640;10.050;2024-01-30T11:29:36;102322.81;;;8.60;100.00
23574;BME280;11965;53.640;10.050;2024-01-30T11:32:05;102325.13;;;8.36;100.00
23574;BME280;11965;53.640;10.050;2024-01-30T11:34:32;102328.34;;;8.41;100.00
23574;BME280;11965;53.640;10.050;2024-01-30T11:37:04;102332.56;;;8.45;100.00
23574;BME280;11965;53.640;10.050;2024-01-30T11:39:36;102330.03;;;8.32;100.00
23574;BME280;11965;53.640;10.050;2024-01-30T11:42:05;102335.13;;;8.27;100.00
23574;BME280;11965;53.640;10.050;2024-01-30T11:44:33;102322.75;;;8.22;100.00
23574;BME280;11965;53.640;10.050;2024-01-30T11:47:00;102308.56;;;8.46;100.00
23574;BME280;11965;53.640;10.050;2024-01-30T11:49:29;102313.22;;;8.45;100.00
23574;BME280;11965;53.640;10.050;2024-01-30T11:51:56;102310.44;;;8.45;100.00
23574;BME280;11965;53.640;10.050;2024-01-30T11:54:23;102312.19;;;8.46;100.00
23574;BME280;11965;53.640;10.050;2024-01-30T11:56:50;102324.25;;;8.65;100.00
23574;BME280;11965;53.640;10.050;2024-01-30T11:59:17;102321.34;;;8.56;100.00
23574;BME280;11965;53.640;10.050;2024-01-30T12:01:46;102310.91;;;8.50;100.00
23574;BME280;11965;53.640;10.050;2024-01-30T12:04:14;102314.97;;;8.66;100.00
23574;BME280;11965;53.640;10.050;2024-01-30T12:06:41;102313.66;;;8.70;100.00
23574;BME280;11965;53.640;10.050;2024-01-30T12:09:09;102310.00;;;8.69;100.00
23574;BME280;11965;53.640;10.050;2024-01-30T12:11:45;102303.03;;;8.55;100.00
23574;BME280;11965;53.640;10.050;2024-01-30T12:14:13;102303.34;;;8.52;100.00
23574;BME280;11965;53.640;10.050;2024-01-30T12:16:40;102305.94;;;8.54;100.00
23574;BME280;11965;53.640;10.050;2024-01-30T12:19:09;102297.94;;;8.60;100.00
23574;BME280;11965;53.640;10.050;2024-01-30T12:21:38;102300.28;;;8.65;100.00
23574;BME280;11965;53.640;10.050;2024-01-30T12:24:05;102306.09;;;8.72;100.00
23574;BME280;11965;53.640;10.050;2024-01-30T12:26:33;102306.22;;;8.80;100.00
23574;BME280;11965;53.640;10.050;2024-01-30T12:29:00;102299.22;;;8.85;100.00
23574;BME280;11965;53.640;10.050;2024-01-30T12:31:27;102282.06;;;8.82;100.00
23574;BME280;11965;53.640;10.050;2024-01-30T12:33:54;102289.94;;;8.87;100.00
23574;BME280;11965;53.640;10.050;2024-01-30T12:36:23;102283.97;;;8.72;100.00
23574;BME280;11965;53.640;10.050;2024-01-30T12:38:50;102284.09;;;8.80;100.00
23574;BME280;11965;53.640;10.050;2024-01-30T12:41:18;102284.66;;;8.83;100.00
23574;BME280;11965;53.640;10.050;2024-01-30T12:43:47;102288.16;;;8.85;100.00